Aérodrome :
LOGIN :

S'inscrire | Disclaimer

   EN    FR    IT 

 










Légende :    VFR   VFR Marginal   IFR   IFR Intensif   IFR Très Intensif
Visi : 
Plafond : 
>= 8 km
>= 3000ft
5 à 8 km
1000 à 3000 ft
1500m à 5 km
500 à 1000 ft
800 à 1500m
200 à 500 ft
< 800m
< 200 ft
Symboles :   Orages  Brouillard  Fortes neiges  Fortes précipitations  Vent > 20 kt
SIGMETs :   Divers  Orages  Givrage  Turbulence  Onde Orograph.  Cendres Volcan.







- Altitude de l'aérodrome : 5600 ft
- Code IATA : SMV


LSZS - Samedan

DERNIER METAR :
  • 221220Z 04001KT CAVOK 09/M15 Q1029 RMK M

METARs EXPIRÉS :
  • 221150Z 04002KT CAVOK 09/M17 Q1030 RMK L
  • 221120Z 03001KT CAVOK 07/M14 Q1030 RMK K
  • 221050Z VRB01KT CAVOK 04/M13 Q1030 RMK J
  • 221020Z 07001KT CAVOK 02/M08 Q1030 RMK H

TAF TAF LSZS
Valide du 22 à 12h jusqu'au 22 à 21h UTC


221125Z 2212/2221 VRB03KT CAVOK TX12/2215Z
ATIS : +41 81 834 93 24
Pas de NOTAMs connus pour ce terrain.



MET'MAP, la Météo Aéronautique d'un coup d'oeil ! - Copyright ORBIFLY Décembre 2007 - Disclaimer

ORBIFLY MET'MAP TEAM :

Programmation & Développement : Alexandra Zaïnal
Conception & Développement : Baudouin d'Aumeries
Co-Programmation & Développement : Marc-Olivier Méhu
Soutien technique & logistique : Manuel Goepfert

Contact : metmap@orbifly.com




SOURCES & CREDITS :

   NOAA